sensor_id;sensor_type;location;lat;lon;timestamp;P1;durP1;ratioP1;P2;durP2;ratioP2
85154;SDS011;75523;53.218;6.564;2024-02-21T00:00:45;41.33;;;38.15;;
85154;SDS011;75523;53.218;6.564;2024-02-21T00:03:10;41.63;;;38.35;;
85154;SDS011;75523;53.218;6.564;2024-02-21T00:05:36;42.95;;;39.85;;
85154;SDS011;75523;53.218;6.564;2024-02-21T00:08:01;40.83;;;37.75;;
85154;SDS011;75523;53.218;6.564;2024-02-21T00:10:28;42.15;;;38.97;;
85154;SDS011;75523;53.218;6.564;2024-02-21T00:12:54;41.28;;;37.38;;
85154;SDS011;75523;53.218;6.564;2024-02-21T00:15:19;41.70;;;37.85;;
85154;SDS011;75523;53.218;6.564;2024-02-21T00:17:46;42.28;;;38.80;;
85154;SDS011;75523;53.218;6.564;2024-02-21T00:20:12;39.05;;;36.28;;
85154;SDS011;75523;53.218;6.564;2024-02-21T00:22:37;39.55;;;36.55;;
85154;SDS011;75523;53.218;6.564;2024-02-21T00:25:03;46.00;;;42.55;;
85154;SDS011;75523;53.218;6.564;2024-02-21T00:27:28;41.22;;;37.38;;
85154;SDS011;75523;53.218;6.564;2024-02-21T00:29:54;42.60;;;38.95;;
85154;SDS011;75523;53.218;6.564;2024-02-21T00:32:20;41.42;;;38.42;;
85154;SDS011;75523;53.218;6.564;2024-02-21T00:34:45;41.38;;;37.88;;
85154;SDS011;75523;53.218;6.564;2024-02-21T00:37:11;42.85;;;39.20;;
85154;SDS011;75523;53.218;6.564;2024-02-21T00:39:36;44.85;;;41.00;;
85154;SDS011;75523;53.218;6.564;2024-02-21T00:42:02;45.40;;;41.40;;
85154;SDS011;75523;53.218;6.564;2024-02-21T00:44:28;42.70;;;38.83;;
85154;SDS011;75523;53.218;6.564;2024-02-21T00:46:53;40.80;;;37.45;;
85154;SDS011;75523;53.218;6.564;2024-02-21T00:49:19;43.15;;;39.72;;
85154;SDS011;75523;53.218;6.564;2024-02-21T00:51:44;42.10;;;38.75;;
85154;SDS011;75523;53.218;6.564;2024-02-21T00:54:10;43.63;;;40.00;;
85154;SDS011;75523;53.218;6.564;2024-02-21T00:56:35;42.88;;;38.72;;
85154;SDS011;75523;53.218;6.564;2024-02-21T00:59:01;42.50;;;38.97;;
85154;SDS011;75523;53.218;6.564;2024-02-21T01:01:26;45.58;;;42.22;;
85154;SDS011;75523;53.218;6.564;2024-02-21T01:03:52;45.75;;;41.53;;
85154;SDS011;75523;53.218;6.564;2024-02-21T01:06:19;46.28;;;41.75;;
85154;SDS011;75523;53.218;6.564;2024-02-21T01:08:45;43.80;;;39.60;;
85154;SDS011;75523;53.218;6.564;2024-02-21T01:11:14;40.65;;;37.25;;
85154;SDS011;75523;53.218;6.564;2024-02-21T01:13:40;41.38;;;37.92;;
85154;SDS011;75523;53.218;6.564;2024-02-21T01:16:05;47.58;;;43.45;;
85154;SDS011;75523;53.218;6.564;2024-02-21T01:18:36;43.20;;;39.20;;
85154;SDS011;75523;53.218;6.564;2024-02-21T01:21:02;47.95;;;43.85;;
85154;SDS011;75523;53.218;6.564;2024-02-21T01:23:32;42.35;;;38.58;;
85154;SDS011;75523;53.218;6.564;2024-02-21T01:25:59;45.22;;;41.03;;
85154;SDS011;75523;53.218;6.564;2024-02-21T01:28:25;42.80;;;38.95;;
85154;SDS011;75523;53.218;6.564;2024-02-21T01:30:50;43.75;;;40.05;;
85154;SDS011;75523;53.218;6.564;2024-02-21T01:33:17;45.90;;;41.17;;
85154;SDS011;75523;53.218;6.564;2024-02-21T01:35:42;43.42;;;39.45;;
85154;SDS011;75523;53.218;6.564;2024-02-21T01:38:07;44.53;;;40.13;;
85154;SDS011;75523;53.218;6.564;2024-02-21T01:40:33;44.20;;;39.83;;
85154;SDS011;75523;53.218;6.564;2024-02-21T01:42:59;44.88;;;40.95;;
85154;SDS011;75523;53.218;6.564;2024-02-21T01:45:24;46.72;;;42.15;;
85154;SDS011;75523;53.218;6.564;2024-02-21T01:47:50;47.08;;;43.08;;
85154;SDS011;75523;53.218;6.564;2024-02-21T01:50:15;46.72;;;42.40;;
85154;SDS011;75523;53.218;6.564;2024-02-21T01:52:45;44.47;;;40.42;;
85154;SDS011;75523;53.218;6.564;2024-02-21T01:55:12;46.53;;;42.63;;
85154;SDS011;75523;53.218;6.564;2024-02-21T01:57:42;45.67;;;41.92;;
85154;SDS011;75523;53.218;6.564;2024-02-21T02:00:11;46.38;;;42.50;;
85154;SDS011;75523;53.218;6.564;2024-02-21T02:02:38;45.22;;;41.53;;
85154;SDS011;75523;53.218;6.564;2024-02-21T02:05:04;44.42;;;40.55;;
85154;SDS011;75523;53.218;6.564;2024-02-21T02:07:31;42.72;;;39.15;;
85154;SDS011;75523;53.218;6.564;2024-02-21T02:09:56;41.67;;;38.33;;
85154;SDS011;75523;53.218;6.564;2024-02-21T02:12:22;45.10;;;41.45;;
85154;SDS011;75523;53.218;6.564;2024-02-21T02:14:57;46.80;;;43.58;;
85154;SDS011;75523;53.218;6.564;2024-02-21T02:17:26;43.08;;;39.80;;
85154;SDS011;75523;53.218;6.564;2024-02-21T02:19:51;42.10;;;38.80;;
85154;SDS011;75523;53.218;6.564;2024-02-21T02:22:22;42.22;;;38.70;;
85154;SDS011;75523;53.218;6.564;2024-02-21T02:24:48;43.45;;;40.15;;
85154;SDS011;75523;53.218;6.564;2024-02-21T02:27:14;42.75;;;39.63;;
85154;SDS011;75523;53.218;6.564;2024-02-21T02:29:40;40.97;;;37.72;;
85154;SDS011;75523;53.218;6.564;2024-02-21T02:32:05;40.85;;;37.58;;
85154;SDS011;75523;53.218;6.564;2024-02-21T02:34:31;44.33;;;40.47;;
85154;SDS011;75523;53.218;6.564;2024-02-21T02:36:56;44.10;;;40.40;;
85154;SDS011;75523;53.218;6.564;2024-02-21T02:39:22;43.60;;;40.05;;
85154;SDS011;75523;53.218;6.564;2024-02-21T02:41:47;44.33;;;40.63;;
85154;SDS011;75523;53.218;6.564;2024-02-21T02:44:13;43.58;;;40.35;;
85154;SDS011;75523;53.218;6.564;2024-02-21T02:46:40;41.20;;;37.85;;
85154;SDS011;75523;53.218;6.564;2024-02-21T02:49:06;44.25;;;40.47;;
85154;SDS011;75523;53.218;6.564;2024-02-21T02:51:32;40.70;;;36.80;;
85154;SDS011;75523;53.218;6.564;2024-02-21T02:53:57;40.47;;;37.33;;
85154;SDS011;75523;53.218;6.564;2024-02-21T02:56:23;47.03;;;43.03;;
85154;SDS011;75523;53.218;6.564;2024-02-21T02:58:48;41.60;;;37.90;;
85154;SDS011;75523;53.218;6.564;2024-02-21T03:01:14;42.58;;;38.95;;
85154;SDS011;75523;53.218;6.564;2024-02-21T03:03:40;43.47;;;39.50;;
85154;SDS011;75523;53.218;6.564;2024-02-21T03:06:05;44.65;;;40.65;;
85154;SDS011;75523;53.218;6.564;2024-02-21T03:08:31;43.15;;;38.33;;
85154;SDS011;75523;53.218;6.564;2024-02-21T03:10:57;45.65;;;41.70;;
85154;SDS011;75523;53.218;6.564;2024-02-21T03:13:25;40.00;;;35.83;;
85154;SDS011;75523;53.218;6.564;2024-02-21T03:15:51;43.05;;;38.63;;
85154;SDS011;75523;53.218;6.564;2024-02-21T03:18:16;43.83;;;39.38;;
85154;SDS011;75523;53.218;6.564;2024-02-21T03:20:41;47.70;;;43.03;;
85154;SDS011;75523;53.218;6.564;2024-02-21T03:23:07;40.17;;;37.35;;
85154;SDS011;75523;53.218;6.564;2024-02-21T03:25:32;45.60;;;41.30;;
85154;SDS011;75523;53.218;6.564;2024-02-21T03:27:58;38.78;;;35.15;;
85154;SDS011;75523;53.218;6.564;2024-02-21T03:30:24;44.67;;;39.92;;
85154;SDS011;75523;53.218;6.564;2024-02-21T03:32:49;43.33;;;38.88;;
85154;SDS011;75523;53.218;6.564;2024-02-21T03:35:16;46.90;;;42.28;;
85154;SDS011;75523;53.218;6.564;2024-02-21T03:37:41;41.17;;;37.55;;
85154;SDS011;75523;53.218;6.564;2024-02-21T03:40:08;42.67;;;38.15;;
85154;SDS011;75523;53.218;6.564;2024-02-21T03:42:34;43.88;;;40.25;;
85154;SDS011;75523;53.218;6.564;2024-02-21T03:44:59;43.80;;;39.53;;
85154;SDS011;75523;53.218;6.564;2024-02-21T03:47:25;45.92;;;42.08;;
85154;SDS011;75523;53.218;6.564;2024-02-21T03:49:51;44.75;;;40.33;;
85154;SDS011;75523;53.218;6.564;2024-02-21T03:52:16;47.80;;;43.08;;
85154;SDS011;75523;53.218;6.564;2024-02-21T03:54:42;44.72;;;40.03;;
85154;SDS011;75523;53.218;6.564;2024-02-21T03:57:07;44.33;;;40.15;;
85154;SDS011;75523;53.218;6.564;2024-02-21T03:59:32;44.42;;;40.25;;
85154;SDS011;75523;53.218;6.564;2024-02-21T04:01:58;43.15;;;39.05;;
85154;SDS011;75523;53.218;6.564;2024-02-21T04:04:24;44.63;;;40.72;;
85154;SDS011;75523;53.218;6.564;2024-02-21T04:06:49;44.53;;;40.58;;
85154;SDS011;75523;53.218;6.564;2024-02-21T04:09:15;44.15;;;39.78;;
85154;SDS011;75523;53.218;6.564;2024-02-21T04:11:41;48.17;;;43.97;;
85154;SDS011;75523;53.218;6.564;2024-02-21T04:14:06;45.58;;;40.88;;
85154;SDS011;75523;53.218;6.564;2024-02-21T04:16:32;46.63;;;42.17;;
85154;SDS011;75523;53.218;6.564;2024-02-21T04:18:57;44.28;;;40.45;;
85154;SDS011;75523;53.218;6.564;2024-02-21T04:21:23;47.13;;;42.33;;
85154;SDS011;75523;53.218;6.564;2024-02-21T04:23:49;49.45;;;44.85;;
85154;SDS011;75523;53.218;6.564;2024-02-21T04:26:15;47.83;;;43.15;;
85154;SDS011;75523;53.218;6.564;2024-02-21T04:28:40;45.90;;;41.83;;
85154;SDS011;75523;53.218;6.564;2024-02-21T04:31:06;48.15;;;43.10;;
85154;SDS011;75523;53.218;6.564;2024-02-21T04:33:31;48.97;;;43.80;;
85154;SDS011;75523;53.218;6.564;2024-02-21T04:35:57;48.35;;;43.72;;
85154;SDS011;75523;53.218;6.564;2024-02-21T04:38:24;45.35;;;39.80;;
85154;SDS011;75523;53.218;6.564;2024-02-21T04:40:49;43.05;;;38.88;;
85154;SDS011;75523;53.218;6.564;2024-02-21T04:43:15;47.65;;;43.25;;
85154;SDS011;75523;53.218;6.564;2024-02-21T04:45:40;45.28;;;40.30;;
85154;SDS011;75523;53.218;6.564;2024-02-21T04:48:06;45.25;;;40.92;;
85154;SDS011;75523;53.218;6.564;2024-02-21T04:50:32;49.50;;;43.45;;
85154;SDS011;75523;53.218;6.564;2024-02-21T04:52:57;45.53;;;41.60;;
85154;SDS011;75523;53.218;6.564;2024-02-21T04:55:23;44.65;;;39.75;;
85154;SDS011;75523;53.218;6.564;2024-02-21T04:57:48;48.13;;;43.45;;
85154;SDS011;75523;53.218;6.564;2024-02-21T05:00:14;47.10;;;42.28;;
85154;SDS011;75523;53.218;6.564;2024-02-21T05:02:40;46.15;;;41.45;;
85154;SDS011;75523;53.218;6.564;2024-02-21T05:05:05;44.78;;;40.08;;
85154;SDS011;75523;53.218;6.564;2024-02-21T05:07:31;45.47;;;40.85;;
85154;SDS011;75523;53.218;6.564;2024-02-21T05:09:57;47.17;;;42.10;;
85154;SDS011;75523;53.218;6.564;2024-02-21T05:12:22;51.05;;;41.13;;
85154;SDS011;75523;53.218;6.564;2024-02-21T05:14:47;46.03;;;41.97;;
85154;SDS011;75523;53.218;6.564;2024-02-21T05:17:14;48.47;;;41.13;;
85154;SDS011;75523;53.218;6.564;2024-02-21T05:19:40;43.92;;;39.45;;
85154;SDS011;75523;53.218;6.564;2024-02-21T05:22:06;46.92;;;42.13;;
85154;SDS011;75523;53.218;6.564;2024-02-21T05:24:31;49.08;;;42.67;;
85154;SDS011;75523;53.218;6.564;2024-02-21T05:26:57;45.53;;;41.35;;
85154;SDS011;75523;53.218;6.564;2024-02-21T05:29:22;49.85;;;45.53;;
85154;SDS011;75523;53.218;6.564;2024-02-21T05:34:16;48.22;;;43.13;;
85154;SDS011;75523;53.218;6.564;2024-02-21T05:36:45;47.45;;;42.83;;
85154;SDS011;75523;53.218;6.564;2024-02-21T05:39:11;47.08;;;42.38;;
85154;SDS011;75523;53.218;6.564;2024-02-21T05:41:36;46.35;;;41.90;;
85154;SDS011;75523;53.218;6.564;2024-02-21T05:44:02;46.42;;;42.08;;
85154;SDS011;75523;53.218;6.564;2024-02-21T05:46:27;49.72;;;44.72;;
85154;SDS011;75523;53.218;6.564;2024-02-21T05:48:53;47.85;;;42.97;;
85154;SDS011;75523;53.218;6.564;2024-02-21T05:51:19;48.45;;;43.35;;
85154;SDS011;75523;53.218;6.564;2024-02-21T05:53:44;46.70;;;41.83;;
85154;SDS011;75523;53.218;6.564;2024-02-21T05:56:13;46.05;;;41.50;;
85154;SDS011;75523;53.218;6.564;2024-02-21T05:58:39;48.47;;;43.90;;
85154;SDS011;75523;53.218;6.564;2024-02-21T06:01:05;45.25;;;41.08;;
85154;SDS011;75523;53.218;6.564;2024-02-21T06:03:32;47.30;;;42.55;;
85154;SDS011;75523;53.218;6.564;2024-02-21T06:05:58;48.28;;;42.20;;
85154;SDS011;75523;53.218;6.564;2024-02-21T06:08:24;47.78;;;43.55;;
85154;SDS011;75523;53.218;6.564;2024-02-21T06:10:50;48.55;;;43.85;;
85154;SDS011;75523;53.218;6.564;2024-02-21T06:13:20;49.95;;;44.72;;
85154;SDS011;75523;53.218;6.564;2024-02-21T06:15:49;46.60;;;39.55;;
85154;SDS011;75523;53.218;6.564;2024-02-21T06:18:15;48.53;;;43.63;;
85154;SDS011;75523;53.218;6.564;2024-02-21T06:20:43;48.88;;;40.70;;
85154;SDS011;75523;53.218;6.564;2024-02-21T06:23:09;47.90;;;42.80;;
85154;SDS011;75523;53.218;6.564;2024-02-21T06:25:35;44.80;;;40.40;;
85154;SDS011;75523;53.218;6.564;2024-02-21T06:28:00;47.15;;;42.35;;
85154;SDS011;75523;53.218;6.564;2024-02-21T06:30:26;51.08;;;45.90;;
85154;SDS011;75523;53.218;6.564;2024-02-21T06:32:52;45.40;;;41.30;;
85154;SDS011;75523;53.218;6.564;2024-02-21T06:35:17;47.30;;;42.80;;
85154;SDS011;75523;53.218;6.564;2024-02-21T06:37:43;47.97;;;43.55;;
85154;SDS011;75523;53.218;6.564;2024-02-21T06:40:10;46.67;;;42.20;;
85154;SDS011;75523;53.218;6.564;2024-02-21T06:42:36;46.38;;;42.00;;
85154;SDS011;75523;53.218;6.564;2024-02-21T06:45:01;45.90;;;41.03;;
85154;SDS011;75523;53.218;6.564;2024-02-21T06:47:27;48.95;;;44.35;;
85154;SDS011;75523;53.218;6.564;2024-02-21T06:49:52;45.72;;;41.58;;
85154;SDS011;75523;53.218;6.564;2024-02-21T06:52:18;51.28;;;45.97;;
85154;SDS011;75523;53.218;6.564;2024-02-21T06:54:45;45.92;;;40.60;;
85154;SDS011;75523;53.218;6.564;2024-02-21T06:57:12;47.83;;;43.13;;
85154;SDS011;75523;53.218;6.564;2024-02-21T06:59:39;44.90;;;40.17;;
85154;SDS011;75523;53.218;6.564;2024-02-21T07:02:05;49.03;;;42.40;;
85154;SDS011;75523;53.218;6.564;2024-02-21T07:04:31;47.10;;;43.13;;
85154;SDS011;75523;53.218;6.564;2024-02-21T07:06:56;52.85;;;41.20;;
85154;SDS011;75523;53.218;6.564;2024-02-21T07:09:22;47.45;;;42.58;;
85154;SDS011;75523;53.218;6.564;2024-02-21T07:11:47;47.75;;;42.78;;
85154;SDS011;75523;53.218;6.564;2024-02-21T07:14:14;45.67;;;40.10;;
85154;SDS011;75523;53.218;6.564;2024-02-21T07:16:40;52.58;;;44.92;;
85154;SDS011;75523;53.218;6.564;2024-02-21T07:19:05;48.72;;;43.78;;
85154;SDS011;75523;53.218;6.564;2024-02-21T07:21:31;55.47;;;45.55;;
85154;SDS011;75523;53.218;6.564;2024-02-21T07:23:56;57.13;;;50.67;;
85154;SDS011;75523;53.218;6.564;2024-02-21T07:26:22;63.13;;;49.17;;
85154;SDS011;75523;53.218;6.564;2024-02-21T07:28:47;70.65;;;47.13;;
85154;SDS011;75523;53.218;6.564;2024-02-21T07:31:13;70.95;;;48.10;;
85154;SDS011;75523;53.218;6.564;2024-02-21T07:33:38;69.85;;;48.47;;
85154;SDS011;75523;53.218;6.564;2024-02-21T07:36:07;71.60;;;51.15;;
85154;SDS011;75523;53.218;6.564;2024-02-21T07:38:35;71.57;;;50.20;;
85154;SDS011;75523;53.218;6.564;2024-02-21T07:41:01;68.47;;;50.97;;
85154;SDS011;75523;53.218;6.564;2024-02-21T07:43:26;72.05;;;49.40;;
85154;SDS011;75523;53.218;6.564;2024-02-21T07:45:52;76.60;;;53.88;;
85154;SDS011;75523;53.218;6.564;2024-02-21T07:48:21;67.32;;;52.40;;
85154;SDS011;75523;53.218;6.564;2024-02-21T07:50:50;63.10;;;47.28;;
85154;SDS011;75523;53.218;6.564;2024-02-21T07:53:16;66.68;;;47.75;;
85154;SDS011;75523;53.218;6.564;2024-02-21T07:55:41;56.28;;;45.67;;
85154;SDS011;75523;53.218;6.564;2024-02-21T07:58:07;54.42;;;42.28;;
85154;SDS011;75523;53.218;6.564;2024-02-21T08:00:33;46.83;;;42.00;;
85154;SDS011;75523;53.218;6.564;2024-02-21T08:02:58;52.55;;;43.65;;
85154;SDS011;75523;53.218;6.564;2024-02-21T08:05:24;53.33;;;43.95;;
85154;SDS011;75523;53.218;6.564;2024-02-21T08:07:49;48.67;;;43.38;;
85154;SDS011;75523;53.218;6.564;2024-02-21T08:10:15;47.80;;;40.92;;
85154;SDS011;75523;53.218;6.564;2024-02-21T08:12:41;46.90;;;42.30;;
85154;SDS011;75523;53.218;6.564;2024-02-21T08:15:06;48.38;;;43.47;;
85154;SDS011;75523;53.218;6.564;2024-02-21T08:17:37;45.33;;;40.78;;
85154;SDS011;75523;53.218;6.564;2024-02-21T08:20:03;42.70;;;38.78;;
85154;SDS011;75523;53.218;6.564;2024-02-21T08:22:29;42.85;;;38.70;;
85154;SDS011;75523;53.218;6.564;2024-02-21T08:24:55;41.45;;;37.53;;
85154;SDS011;75523;53.218;6.564;2024-02-21T08:27:21;44.40;;;41.03;;
85154;SDS011;75523;53.218;6.564;2024-02-21T08:29:46;43.40;;;39.65;;
85154;SDS011;75523;53.218;6.564;2024-02-21T08:32:12;43.13;;;39.55;;
85154;SDS011;75523;53.218;6.564;2024-02-21T08:34:37;42.17;;;38.70;;
85154;SDS011;75523;53.218;6.564;2024-02-21T08:37:03;45.25;;;40.38;;
85154;SDS011;75523;53.218;6.564;2024-02-21T08:39:28;42.80;;;39.28;;
85154;SDS011;75523;53.218;6.564;2024-02-21T08:41:55;45.25;;;41.47;;
85154;SDS011;75523;53.218;6.564;2024-02-21T08:44:25;45.22;;;41.80;;
85154;SDS011;75523;53.218;6.564;2024-02-21T08:46:53;43.22;;;39.63;;
85154;SDS011;75523;53.218;6.564;2024-02-21T08:49:19;43.03;;;39.63;;
85154;SDS011;75523;53.218;6.564;2024-02-21T08:51:45;47.60;;;43.88;;
85154;SDS011;75523;53.218;6.564;2024-02-21T08:54:11;41.47;;;37.80;;
85154;SDS011;75523;53.218;6.564;2024-02-21T08:56:37;45.85;;;41.97;;
85154;SDS011;75523;53.218;6.564;2024-02-21T08:59:02;48.35;;;43.85;;
85154;SDS011;75523;53.218;6.564;2024-02-21T09:01:28;43.95;;;40.70;;
85154;SDS011;75523;53.218;6.564;2024-02-21T09:03:54;46.30;;;42.38;;
85154;SDS011;75523;53.218;6.564;2024-02-21T09:06:21;47.28;;;42.95;;
85154;SDS011;75523;53.218;6.564;2024-02-21T09:08:47;47.03;;;42.63;;
85154;SDS011;75523;53.218;6.564;2024-02-21T09:11:13;49.67;;;44.88;;
85154;SDS011;75523;53.218;6.564;2024-02-21T09:13:38;50.50;;;45.83;;
85154;SDS011;75523;53.218;6.564;2024-02-21T09:16:04;44.75;;;40.97;;
85154;SDS011;75523;53.218;6.564;2024-02-21T09:18:31;50.97;;;46.75;;
85154;SDS011;75523;53.218;6.564;2024-02-21T09:20:56;49.42;;;45.10;;
85154;SDS011;75523;53.218;6.564;2024-02-21T09:23:23;50.22;;;45.67;;
85154;SDS011;75523;53.218;6.564;2024-02-21T09:25:49;51.10;;;46.63;;
85154;SDS011;75523;53.218;6.564;2024-02-21T09:28:15;50.17;;;45.75;;
85154;SDS011;75523;53.218;6.564;2024-02-21T09:30:41;55.13;;;49.75;;
85154;SDS011;75523;53.218;6.564;2024-02-21T09:33:06;53.22;;;48.25;;
85154;SDS011;75523;53.218;6.564;2024-02-21T09:35:31;53.97;;;49.58;;
85154;SDS011;75523;53.218;6.564;2024-02-21T09:37:58;51.30;;;46.97;;
85154;SDS011;75523;53.218;6.564;2024-02-21T09:40:24;51.92;;;47.08;;
85154;SDS011;75523;53.218;6.564;2024-02-21T09:42:55;50.87;;;46.87;;
85154;SDS011;75523;53.218;6.564;2024-02-21T09:45:29;54.15;;;49.90;;
85154;SDS011;75523;53.218;6.564;2024-02-21T09:50:29;52.60;;;48.17;;
85154;SDS011;75523;53.218;6.564;2024-02-21T09:52:56;51.15;;;47.20;;
85154;SDS011;75523;53.218;6.564;2024-02-21T09:55:22;54.75;;;49.95;;
85154;SDS011;75523;53.218;6.564;2024-02-21T09:57:48;53.30;;;49.13;;
85154;SDS011;75523;53.218;6.564;2024-02-21T10:00:15;51.58;;;47.30;;
85154;SDS011;75523;53.218;6.564;2024-02-21T10:02:46;52.40;;;48.42;;
85154;SDS011;75523;53.218;6.564;2024-02-21T10:05:14;52.50;;;48.47;;
85154;SDS011;75523;53.218;6.564;2024-02-21T10:07:39;48.70;;;44.58;;
85154;SDS011;75523;53.218;6.564;2024-02-21T10:10:05;49.78;;;45.55;;
85154;SDS011;75523;53.218;6.564;2024-02-21T10:12:31;49.88;;;45.50;;
85154;SDS011;75523;53.218;6.564;2024-02-21T10:15:03;47.05;;;43.15;;
85154;SDS011;75523;53.218;6.564;2024-02-21T10:17:30;48.78;;;44.88;;
85154;SDS011;75523;53.218;6.564;2024-02-21T10:20:06;48.53;;;44.53;;
85154;SDS011;75523;53.218;6.564;2024-02-21T10:22:32;50.88;;;45.90;;
85154;SDS011;75523;53.218;6.564;2024-02-21T10:25:10;48.00;;;44.40;;
85154;SDS011;75523;53.218;6.564;2024-02-21T10:27:38;51.90;;;48.08;;
85154;SDS011;75523;53.218;6.564;2024-02-21T10:30:05;51.85;;;47.63;;
85154;SDS011;75523;53.218;6.564;2024-02-21T10:32:32;49.58;;;45.63;;
85154;SDS011;75523;53.218;6.564;2024-02-21T10:35:03;50.72;;;46.72;;
85154;SDS011;75523;53.218;6.564;2024-02-21T10:37:30;50.95;;;46.78;;
85154;SDS011;75523;53.218;6.564;2024-02-21T10:39:56;52.17;;;48.42;;
85154;SDS011;75523;53.218;6.564;2024-02-21T10:42:22;52.33;;;48.22;;
85154;SDS011;75523;53.218;6.564;2024-02-21T10:44:50;52.70;;;48.38;;
85154;SDS011;75523;53.218;6.564;2024-02-21T10:47:16;55.50;;;51.15;;
85154;SDS011;75523;53.218;6.564;2024-02-21T10:49:46;51.38;;;47.22;;
85154;SDS011;75523;53.218;6.564;2024-02-21T10:52:22;52.15;;;47.70;;
85154;SDS011;75523;53.218;6.564;2024-02-21T10:55:16;55.17;;;50.88;;
85154;SDS011;75523;53.218;6.564;2024-02-21T10:57:50;54.60;;;49.95;;
85154;SDS011;75523;53.218;6.564;2024-02-21T11:00:17;53.70;;;49.60;;
85154;SDS011;75523;53.218;6.564;2024-02-21T11:02:43;54.65;;;50.35;;
85154;SDS011;75523;53.218;6.564;2024-02-21T11:05:08;51.22;;;47.15;;
85154;SDS011;75523;53.218;6.564;2024-02-21T11:07:35;50.28;;;46.53;;
85154;SDS011;75523;53.218;6.564;2024-02-21T11:10:02;52.42;;;48.35;;
85154;SDS011;75523;53.218;6.564;2024-02-21T11:12:32;49.42;;;45.33;;
85154;SDS011;75523;53.218;6.564;2024-02-21T11:15:06;54.67;;;50.00;;
85154;SDS011;75523;53.218;6.564;2024-02-21T11:17:32;49.85;;;46.03;;
85154;SDS011;75523;53.218;6.564;2024-02-21T11:19:58;51.15;;;46.92;;
85154;SDS011;75523;53.218;6.564;2024-02-21T11:22:26;50.85;;;46.92;;
85154;SDS011;75523;53.218;6.564;2024-02-21T11:25:05;50.20;;;46.08;;
85154;SDS011;75523;53.218;6.564;2024-02-21T11:27:33;49.67;;;45.77;;
85154;SDS011;75523;53.218;6.564;2024-02-21T11:29:59;51.90;;;47.50;;
85154;SDS011;75523;53.218;6.564;2024-02-21T11:32:25;48.58;;;44.83;;
85154;SDS011;75523;53.218;6.564;2024-02-21T11:34:55;50.33;;;46.53;;
85154;SDS011;75523;53.218;6.564;2024-02-21T11:37:21;51.78;;;48.10;;
85154;SDS011;75523;53.218;6.564;2024-02-21T11:39:50;49.92;;;46.08;;
85154;SDS011;75523;53.218;6.564;2024-02-21T11:42:18;50.25;;;46.30;;
85154;SDS011;75523;53.218;6.564;2024-02-21T11:44:43;48.38;;;44.75;;
85154;SDS011;75523;53.218;6.564;2024-02-21T11:47:09;48.00;;;44.13;;
85154;SDS011;75523;53.218;6.564;2024-02-21T11:49:38;45.38;;;42.08;;
85154;SDS011;75523;53.218;6.564;2024-02-21T11:52:08;48.88;;;45.47;;
85154;SDS011;75523;53.218;6.564;2024-02-21T11:54:33;44.83;;;41.72;;
85154;SDS011;75523;53.218;6.564;2024-02-21T11:57:00;49.58;;;45.50;;
85154;SDS011;75523;53.218;6.564;2024-02-21T11:59:26;45.08;;;41.35;;
85154;SDS011;75523;53.218;6.564;2024-02-21T12:01:52;46.60;;;42.95;;
85154;SDS011;75523;53.218;6.564;2024-02-21T12:04:18;44.65;;;41.50;;
85154;SDS011;75523;53.218;6.564;2024-02-21T12:06:45;44.65;;;41.33;;
85154;SDS011;75523;53.218;6.564;2024-02-21T12:09:14;46.30;;;42.85;;
85154;SDS011;75523;53.218;6.564;2024-02-21T12:11:41;44.75;;;41.42;;
85154;SDS011;75523;53.218;6.564;2024-02-21T12:14:08;47.08;;;43.45;;
85154;SDS011;75523;53.218;6.564;2024-02-21T12:16:34;44.13;;;40.70;;
85154;SDS011;75523;53.218;6.564;2024-02-21T12:19:02;44.55;;;41.42;;
85154;SDS011;75523;53.218;6.564;2024-02-21T12:21:32;44.05;;;40.83;;
85154;SDS011;75523;53.218;6.564;2024-02-21T12:24:14;49.60;;;46.30;;
85154;SDS011;75523;53.218;6.564;2024-02-21T12:26:46;43.83;;;40.80;;
85154;SDS011;75523;53.218;6.564;2024-02-21T12:29:12;44.55;;;41.60;;
85154;SDS011;75523;53.218;6.564;2024-02-21T12:31:38;42.97;;;39.55;;
85154;SDS011;75523;53.218;6.564;2024-02-21T12:34:04;46.20;;;42.65;;
85154;SDS011;75523;53.218;6.564;2024-02-21T12:36:33;44.60;;;41.70;;
85154;SDS011;75523;53.218;6.564;2024-02-21T12:38:58;42.33;;;39.40;;
85154;SDS011;75523;53.218;6.564;2024-02-21T12:41:25;42.10;;;39.13;;
85154;SDS011;75523;53.218;6.564;2024-02-21T12:43:52;47.15;;;43.42;;
85154;SDS011;75523;53.218;6.564;2024-02-21T12:46:18;44.30;;;41.40;;
85154;SDS011;75523;53.218;6.564;2024-02-21T12:48:43;44.60;;;41.50;;
85154;SDS011;75523;53.218;6.564;2024-02-21T12:51:09;46.63;;;43.28;;
85154;SDS011;75523;53.218;6.564;2024-02-21T12:53:35;43.72;;;40.55;;
85154;SDS011;75523;53.218;6.564;2024-02-21T12:56:00;41.38;;;38.75;;
85154;SDS011;75523;53.218;6.564;2024-02-21T12:58:26;45.00;;;42.17;;
85154;SDS011;75523;53.218;6.564;2024-02-21T13:00:51;42.17;;;39.17;;
85154;SDS011;75523;53.218;6.564;2024-02-21T13:03:17;44.78;;;41.78;;
85154;SDS011;75523;53.218;6.564;2024-02-21T13:05:43;45.53;;;42.72;;
85154;SDS011;75523;53.218;6.564;2024-02-21T13:08:09;40.78;;;38.33;;
85154;SDS011;75523;53.218;6.564;2024-02-21T13:10:35;44.80;;;41.42;;
85154;SDS011;75523;53.218;6.564;2024-02-21T13:13:03;42.50;;;39.58;;
85154;SDS011;75523;53.218;6.564;2024-02-21T13:15:29;41.63;;;38.65;;
85154;SDS011;75523;53.218;6.564;2024-02-21T13:17:58;40.60;;;37.97;;
85154;SDS011;75523;53.218;6.564;2024-02-21T13:20:25;42.88;;;40.05;;
85154;SDS011;75523;53.218;6.564;2024-02-21T13:22:51;43.47;;;40.83;;
85154;SDS011;75523;53.218;6.564;2024-02-21T13:25:16;42.78;;;40.17;;
85154;SDS011;75523;53.218;6.564;2024-02-21T13:27:45;43.53;;;40.92;;
85154;SDS011;75523;53.218;6.564;2024-02-21T13:30:11;41.10;;;38.42;;
85154;SDS011;75523;53.218;6.564;2024-02-21T13:32:37;42.70;;;40.05;;
85154;SDS011;75523;53.218;6.564;2024-02-21T13:35:03;39.78;;;37.03;;
85154;SDS011;75523;53.218;6.564;2024-02-21T13:37:28;41.90;;;39.25;;
85154;SDS011;75523;53.218;6.564;2024-02-21T13:39:54;41.10;;;38.50;;
85154;SDS011;75523;53.218;6.564;2024-02-21T13:42:20;41.88;;;39.45;;
85154;SDS011;75523;53.218;6.564;2024-02-21T13:44:45;39.97;;;37.53;;
85154;SDS011;75523;53.218;6.564;2024-02-21T13:47:12;37.63;;;35.10;;
85154;SDS011;75523;53.218;6.564;2024-02-21T13:49:39;40.05;;;37.72;;
85154;SDS011;75523;53.218;6.564;2024-02-21T13:52:04;39.22;;;37.05;;
85154;SDS011;75523;53.218;6.564;2024-02-21T13:54:30;39.05;;;36.55;;
85154;SDS011;75523;53.218;6.564;2024-02-21T13:56:55;39.28;;;37.10;;
85154;SDS011;75523;53.218;6.564;2024-02-21T13:59:21;41.63;;;39.08;;
85154;SDS011;75523;53.218;6.564;2024-02-21T14:01:46;37.22;;;34.65;;
85154;SDS011;75523;53.218;6.564;2024-02-21T14:04:12;41.10;;;38.88;;
85154;SDS011;75523;53.218;6.564;2024-02-21T14:06:37;41.15;;;38.85;;
85154;SDS011;75523;53.218;6.564;2024-02-21T14:09:08;41.33;;;39.13;;
85154;SDS011;75523;53.218;6.564;2024-02-21T14:11:34;41.15;;;38.95;;
85154;SDS011;75523;53.218;6.564;2024-02-21T14:14:00;37.72;;;35.70;;
85154;SDS011;75523;53.218;6.564;2024-02-21T14:16:25;41.28;;;39.05;;
85154;SDS011;75523;53.218;6.564;2024-02-21T14:18:51;42.20;;;39.63;;
85154;SDS011;75523;53.218;6.564;2024-02-21T14:21:16;40.35;;;38.15;;